Time;durP1;ratioP1;P1;durP2;ratioP2;P2;SDS_P1;SDS_P2;PMS_P1;PMS_P2;Temp;Humidity;BMP_temperature;BMP_pressure;BME280_temperature;BME280_humidity;BME280_pressure;Samples;Min_cycle;Max_cycle;Signal;HPM_P1;HPM_P2
2022/08/24 00:00:11;;;;;;;2.88;1.20;;;22.70;83.00;;;;;;5144187;27;45381;-75
2022/08/24 00:02:38;;;;;;;3.88;1.33;;;22.70;82.40;;;;;;5145507;27;45400;-74
2022/08/24 00:05:06;;;;;;;3.00;1.20;;;22.80;82.20;;;;;;5132378;27;46574;-74
2022/08/24 00:07:34;;;;;;;4.45;1.25;;;22.80;82.20;;;;;;5124604;27;45354;-74
2022/08/24 00:10:01;;;;;;;5.68;1.60;;;22.70;82.20;;;;;;5124842;27;45329;-75
2022/08/24 00:12:30;;;;;;;2.95;1.20;;;22.70;83.70;;;;;;5123686;27;45205;-74
2022/08/24 00:14:56;;;;;;;1.83;1.17;;;22.70;82.70;;;;;;5123874;27;46654;-74
2022/08/24 00:17:24;;;;;;;4.95;1.40;;;22.70;82.60;;;;;;5125329;27;45539;-74
2022/08/24 00:19:51;;;;;;;2.85;1.15;;;22.60;82.80;;;;;;5124713;27;45247;-74
2022/08/24 00:22:19;;;;;;;4.25;1.50;;;22.60;82.90;;;;;;5128986;27;45285;-74
2022/08/24 00:24:46;;;;;;;3.50;1.35;;;22.60;82.90;;;;;;5145242;27;48113;-74
2022/08/24 00:27:13;;;;;;;5.40;1.52;;;22.60;83.40;;;;;;5144995;27;45472;-74
2022/08/24 00:29:42;;;;;;;5.55;1.60;;;22.60;83.40;;;;;;5145807;27;45301;-74
2022/08/24 00:32:08;;;;;;;2.65;1.30;;;22.60;83.80;;;;;;5145341;27;45257;-73
2022/08/24 00:34:35;;;;;;;1.98;1.50;;;22.50;84.00;;;;;;5127642;27;46651;-74
2022/08/24 00:37:02;;;;;;;2.03;1.30;;;22.60;83.50;;;;;;5123993;27;45325;-74
2022/08/24 00:39:29;;;;;;;2.60;1.40;;;22.60;84.20;;;;;;5124456;27;45279;-74
2022/08/24 00:41:56;;;;;;;3.60;1.35;;;22.60;83.80;;;;;;5124094;27;45568;-75
2022/08/24 00:44:22;;;;;;;3.88;1.15;;;22.50;83.50;;;;;;5124202;27;47348;-74
2022/08/24 00:46:55;;;;;;;2.63;1.50;;;22.50;83.70;;;;;;5123476;27;45596;-75
2022/08/24 00:49:27;;;;;;;5.07;1.40;;;22.50;84.60;;;;;;5147799;27;45344;-75
2022/08/24 00:51:59;;;;;;;4.97;1.50;;;22.50;84.90;;;;;;5158579;27;45242;-74
2022/08/24 00:54:29;;;;;;;5.75;1.65;;;22.50;84.00;;;;;;5153010;27;48388;-74
2022/08/24 00:57:02;;;;;;;5.55;1.60;;;22.50;84.30;;;;;;5144868;27;45400;-74
2022/08/24 00:59:32;;;;;;;4.32;1.52;;;22.40;84.70;;;;;;5144688;27;45378;-74
2022/08/24 01:02:05;;;;;;;4.38;1.23;;;22.30;85.00;;;;;;5144360;27;45571;-75
2022/08/24 01:04:43;;;;;;;3.92;1.40;;;22.20;86.60;;;;;;5136443;27;47856;-74
2022/08/24 01:07:09;;;;;;;7.10;1.50;;;22.20;88.60;;;;;;5123750;27;45287;-74
2022/08/24 01:09:36;;;;;;;2.08;1.30;;;22.30;88.10;;;;;;5123325;27;45248;-75
2022/08/24 01:12:04;;;;;;;3.05;1.50;;;22.30;87.10;;;;;;5124161;27;45403;-74
2022/08/24 01:14:31;;;;;;;7.70;1.60;;;22.30;86.60;;;;;;5126905;27;47564;-74
2022/08/24 01:19:46;;;;;;;3.95;1.60;;;22.30;86.20;;;;;;5128094;27;45314;-74
2022/08/24 01:22:29;;;;;;;1.90;1.30;;;22.30;87.20;;;;;;5126990;27;45235;-75
2022/08/24 01:24:57;;;;;;;4.05;1.45;;;22.30;86.60;;;;;;5127726;27;48053;-74
2022/08/24 01:27:24;;;;;;;2.50;1.48;;;22.30;87.40;;;;;;5129739;27;45400;-74
2022/08/24 01:29:53;;;;;;;4.38;1.60;;;22.30;86.50;;;;;;5127684;27;45354;-74
2022/08/24 01:32:23;;;;;;;3.38;1.42;;;22.30;86.80;;;;;;5127192;27;45253;-74
2022/08/24 01:34:52;;;;;;;3.88;1.48;;;22.40;86.30;;;;;;5157345;27;47307;-74
2022/08/24 01:37:19;;;;;;;5.18;1.45;;;22.30;87.00;;;;;;5145818;27;45272;-74
2022/08/24 01:39:48;;;;;;;7.90;1.83;;;22.30;86.40;;;;;;5147789;27;45475;-74
2022/08/24 01:42:16;;;;;;;3.03;1.52;;;22.30;86.50;;;;;;5142975;27;45587;-74
2022/08/24 01:44:45;;;;;;;2.70;1.45;;;22.20;86.40;;;;;;5126431;27;48063;-74
2022/08/24 01:47:13;;;;;;;6.50;1.75;;;22.20;86.90;;;;;;5127024;27;45243;-74
2022/08/24 01:49:43;;;;;;;4.95;1.58;;;22.20;86.90;;;;;;5126911;27;45297;-74
2022/08/24 01:52:13;;;;;;;4.55;1.42;;;22.20;86.60;;;;;;5126605;27;45506;-74
2022/08/24 01:54:40;;;;;;;4.45;1.60;;;22.20;86.60;;;;;;5126839;27;48384;-74
2022/08/24 01:57:08;;;;;;;4.25;1.50;;;22.20;86.90;;;;;;5126264;27;45409;-75
2022/08/24 01:59:36;;;;;;;4.07;1.65;;;22.20;87.30;;;;;;5133155;27;45516;-74
2022/08/24 02:02:08;;;;;;;6.10;1.50;;;22.20;87.10;;;;;;5147061;27;45311;-74
2022/08/24 02:04:35;;;;;;;4.05;1.50;;;22.20;86.70;;;;;;5146921;27;46406;-74
2022/08/24 02:07:02;;;;;;;3.10;1.60;;;22.20;86.40;;;;;;5147088;27;45377;-74
2022/08/24 02:09:29;;;;;;;2.05;1.50;;;22.20;86.80;;;;;;5147113;27;45321;-74
2022/08/24 02:11:56;;;;;;;5.28;1.50;;;22.20;86.70;;;;;;5146142;27;45385;-75
2022/08/24 02:14:23;;;;;;;3.17;1.25;;;22.40;86.60;;;;;;5147121;27;47785;-74
2022/08/24 02:16:51;;;;;;;5.07;1.30;;;22.40;86.30;;;;;;5147003;27;45358;-75
2022/08/24 02:19:17;;;;;;;2.42;1.23;;;22.40;86.30;;;;;;5147726;27;45395;-74
2022/08/24 02:21:45;;;;;;;1.65;1.20;;;22.40;86.80;;;;;;5147234;27;45303;-75
2022/08/24 02:24:12;;;;;;;5.55;1.58;;;22.40;86.90;;;;;;5145712;27;47661;-75
2022/08/24 02:26:39;;;;;;;5.90;1.73;;;22.30;87.00;;;;;;5146365;27;46181;-74
2022/08/24 02:29:06;;;;;;;4.47;1.15;;;22.40;86.60;;;;;;5147127;27;45317;-74
2022/08/24 02:31:33;;;;;;;1.95;1.20;;;22.50;86.40;;;;;;5147288;27;45597;-74
2022/08/24 02:34:01;;;;;;;2.50;1.13;;;22.50;86.20;;;;;;5135680;27;45336;-75
2022/08/24 02:36:29;;;;;;;4.60;1.48;;;22.50;85.60;;;;;;5126196;27;45559;-74
2022/08/24 02:38:56;;;;;;;4.90;1.48;;;22.50;85.30;;;;;;5126421;27;45277;-75
2022/08/24 02:41:25;;;;;;;5.82;1.63;;;22.50;85.90;;;;;;5125675;27;45272;-74
2022/08/24 02:43:52;;;;;;;6.47;1.70;;;22.50;85.50;;;;;;5125195;27;47375;-74
2022/08/24 02:46:20;;;;;;;6.32;1.65;;;22.50;85.40;;;;;;5125604;27;45308;-74
2022/08/24 02:48:47;;;;;;;4.00;1.45;;;22.50;85.90;;;;;;5126076;27;45209;-74
2022/08/24 02:51:23;;;;;;;5.57;1.65;;;22.50;85.90;;;;;;5125762;27;45288;-74
2022/08/24 02:53:50;;;;;;;8.05;1.60;;;22.50;86.00;;;;;;5124960;27;47422;-74
2022/08/24 02:56:19;;;;;;;8.40;1.60;;;22.50;85.70;;;;;;5125766;27;45539;-74
2022/08/24 02:58:46;;;;;;;4.18;1.30;;;22.50;85.70;;;;;;5126074;27;45472;-74
2022/08/24 03:01:14;;;;;;;3.17;1.13;;;22.50;85.70;;;;;;5125552;27;45484;-74
2022/08/24 03:03:41;;;;;;;5.78;1.38;;;22.50;85.80;;;;;;5125019;27;47104;-74
2022/08/24 03:06:09;;;;;;;6.22;1.42;;;22.40;85.60;;;;;;5125642;27;45252;-74
2022/08/24 03:08:37;;;;;;;5.90;1.23;;;22.30;85.20;;;;;;5141167;27;45316;-74
2022/08/24 03:11:07;;;;;;;4.18;1.67;;;22.20;85.60;;;;;;5146254;27;45629;-75
2022/08/24 03:13:35;;;;;;;5.07;1.73;;;22.10;86.30;;;;;;5145868;27;47724;-74
2022/08/24 03:16:02;;;;;;;3.08;1.60;;;22.10;86.60;;;;;;5145502;27;45440;-75
2022/08/24 03:18:28;;;;;;;8.13;1.58;;;22.10;86.70;;;;;;5146572;27;45403;-75
2022/08/24 03:20:57;;;;;;;8.38;2.00;;;22.20;86.50;;;;;;5146324;27;45241;-74
2022/08/24 03:23:25;;;;;;;5.70;1.75;;;22.10;86.30;;;;;;5145599;27;47310;-75
2022/08/24 03:25:53;;;;;;;6.22;1.70;;;22.10;86.90;;;;;;5144835;27;45291;-73
2022/08/24 03:28:20;;;;;;;7.72;1.60;;;22.00;86.90;;;;;;5145868;27;45334;-73
2022/08/24 03:30:48;;;;;;;9.13;1.95;;;22.10;86.80;;;;;;5145716;27;45553;-74
2022/08/24 03:33:15;;;;;;;5.88;1.52;;;22.20;86.80;;;;;;5145151;27;47628;-74
2022/08/24 03:35:42;;;;;;;14.10;2.10;;;22.20;86.40;;;;;;5152436;27;45361;-73
2022/08/24 03:38:08;;;;;;;12.85;2.03;;;22.20;86.00;;;;;;5151612;27;45432;-73
2022/08/24 03:40:35;;;;;;;6.97;1.90;;;22.20;86.10;;;;;;5166571;27;45517;-73
2022/08/24 03:43:03;;;;;;;9.80;1.80;;;22.20;86.20;;;;;;5144681;27;47968;-74
2022/08/24 03:45:30;;;;;;;8.27;1.70;;;22.20;86.30;;;;;;5145731;27;45417;-73
2022/08/24 03:47:57;;;;;;;13.02;1.98;;;22.20;86.30;;;;;;5145475;27;45490;-73
2022/08/24 03:50:25;;;;;;;10.18;1.92;;;22.30;86.30;;;;;;5145804;27;45598;-73
2022/08/24 03:52:52;;;;;;;6.32;2.08;;;22.40;86.20;;;;;;5144641;27;46669;-73
2022/08/24 03:55:19;;;;;;;8.13;1.67;;;22.40;86.20;;;;;;5145600;27;45498;-74
2022/08/24 03:57:46;;;;;;;6.85;1.90;;;22.40;86.10;;;;;;5144641;27;45345;-73
2022/08/24 04:00:15;;;;;;;8.10;1.77;;;22.40;86.20;;;;;;5145364;27;45496;-74
2022/08/24 04:02:43;;;;;;;4.95;1.95;;;22.40;85.80;;;;;;5144533;27;47950;-73
2022/08/24 04:05:11;;;;;;;8.63;2.33;;;22.40;86.10;;;;;;5146589;27;45540;-73
2022/08/24 04:07:38;;;;;;;7.60;1.77;;;22.40;86.10;;;;;;5124877;27;45538;-73
2022/08/24 04:10:05;;;;;;;7.47;1.67;;;22.40;87.20;;;;;;5123527;27;45395;-73
2022/08/24 04:12:32;;;;;;;4.72;1.48;;;22.40;86.10;;;;;;5122369;27;45642;-74
2022/08/24 04:14:59;;;;;;;9.90;2.03;;;22.30;86.40;;;;;;5123383;27;45405;-74
2022/08/24 04:17:27;;;;;;;8.48;1.73;;;22.30;86.70;;;;;;5124007;27;45365;-73
2022/08/24 04:20:00;;;;;;;10.45;1.73;;;22.30;86.80;;;;;;5124531;27;45414;-74
2022/08/24 04:22:28;;;;;;;7.82;1.58;;;22.20;86.70;;;;;;5148790;27;46402;-74
2022/08/24 04:24:56;;;;;;;6.72;2.05;;;22.20;87.30;;;;;;5165936;27;45274;-74
2022/08/24 04:27:23;;;;;;;8.43;1.95;;;22.10;87.20;;;;;;5160204;27;45403;-73
2022/08/24 04:29:50;;;;;;;8.05;1.80;;;22.10;87.50;;;;;;5157327;27;45258;-73
2022/08/24 04:32:17;;;;;;;10.88;1.90;;;22.10;87.60;;;;;;5159102;27;45681;-73
2022/08/24 04:34:45;;;;;;;4.05;1.70;;;22.10;87.60;;;;;;5145136;27;45304;-73
2022/08/24 04:37:13;;;;;;;5.20;1.35;;;22.10;87.60;;;;;;5144879;27;45637;-73
2022/08/24 04:39:40;;;;;;;6.18;1.67;;;22.10;87.80;;;;;;5147457;27;45421;-73
2022/08/24 04:42:08;;;;;;;4.57;1.40;;;22.10;87.80;;;;;;5145486;27;47007;-73
2022/08/24 04:44:35;;;;;;;6.13;1.73;;;22.10;87.90;;;;;;5145760;27;45899;-73
2022/08/24 04:47:01;;;;;;;6.13;1.63;;;22.10;87.90;;;;;;5163460;27;45357;-73
2022/08/24 04:49:28;;;;;;;8.80;1.60;;;22.10;87.90;;;;;;5155710;27;45313;-73
2022/08/24 04:51:57;;;;;;;6.15;1.80;;;22.10;88.00;;;;;;5169292;27;45341;-73
2022/08/24 04:54:24;;;;;;;5.60;1.73;;;22.10;88.20;;;;;;5169313;27;45365;-73
2022/08/24 04:56:51;;;;;;;5.70;1.55;;;22.10;87.80;;;;;;5168013;27;45424;-73
2022/08/24 04:59:17;;;;;;;8.85;2.00;;;22.00;87.70;;;;;;5159420;27;45434;-74
2022/08/24 05:01:44;;;;;;;7.55;2.00;;;22.00;87.90;;;;;;5168913;27;46612;-73
2022/08/24 05:04:12;;;;;;;6.20;1.80;;;21.90;87.60;;;;;;5168578;27;45311;-73
2022/08/24 05:06:41;;;;;;;6.57;1.83;;;21.90;87.90;;;;;;5147531;27;45373;-73
2022/08/24 05:09:09;;;;;;;6.75;2.05;;;21.90;88.00;;;;;;5129984;27;45407;-73
2022/08/24 05:11:39;;;;;;;7.78;1.75;;;21.90;88.50;;;;;;5125719;27;46312;-73
2022/08/24 05:14:06;;;;;;;7.93;1.70;;;21.90;88.80;;;;;;5152967;27;45426;-73
2022/08/24 05:16:34;;;;;;;12.60;1.60;;;21.90;88.50;;;;;;5155014;27;45384;-73
2022/08/24 05:19:00;;;;;;;6.82;1.60;;;21.90;88.00;;;;;;5160166;27;45426;-73
2022/08/24 05:21:29;;;;;;;6.57;1.58;;;21.90;88.20;;;;;;5147625;27;46845;-73
2022/08/24 05:23:56;;;;;;;5.43;1.77;;;22.00;88.10;;;;;;5143823;27;45703;-74
2022/08/24 05:26:27;;;;;;;2.95;1.73;;;22.00;88.10;;;;;;5145414;27;45421;-73
2022/08/24 05:28:55;;;;;;;5.88;1.90;;;22.00;87.90;;;;;;5126667;27;45443;-74
2022/08/24 05:31:24;;;;;;;6.93;1.98;;;22.00;87.80;;;;;;5132454;27;46909;-73
2022/08/24 05:33:51;;;;;;;4.45;1.73;;;22.00;87.70;;;;;;5153089;27;45331;-73
2022/08/24 05:36:21;;;;;;;10.98;2.50;;;22.00;87.10;;;;;;5144345;27;45535;-74
2022/08/24 05:38:49;;;;;;;3.53;1.88;;;21.90;88.40;;;;;;5145594;27;45425;-73
2022/08/24 05:41:17;;;;;;;6.30;2.40;;;22.00;88.10;;;;;;5132258;27;47697;-73
2022/08/24 05:43:46;;;;;;;7.25;2.75;;;20.30;92.40;;;;;;5167158;27;45368;-73
2022/08/24 05:46:14;;;;;;;8.90;2.92;;;19.10;97.70;;;;;;5149171;27;45680;-73
2022/08/24 05:48:42;;;;;;;4.53;2.38;;;18.80;99.90;;;;;;5161969;27;45418;-73
2022/08/24 05:51:10;;;;;;;10.13;2.70;;;18.70;99.90;;;;;;5162203;27;47714;-73
2022/08/24 05:53:37;;;;;;;15.43;3.08;;;18.70;99.90;;;;;;5125186;27;45452;-73
2022/08/24 05:56:05;;;;;;;8.98;2.92;;;19.00;99.90;;;;;;5126870;27;45503;-73
2022/08/24 05:58:31;;;;;;;6.78;2.58;;;19.10;99.90;;;;;;5128601;27;45433;-72
2022/08/24 06:01:05;;;;;;;12.50;3.22;;;19.20;99.90;;;;;;5125393;27;46268;-72
2022/08/24 06:03:31;;;;;;;8.52;2.85;;;19.30;99.90;;;;;;5124515;27;45527;-72
2022/08/24 06:05:58;;;;;;;10.55;2.67;;;19.40;99.90;;;;;;5133793;27;45626;-72
2022/08/24 06:08:25;;;;;;;7.07;2.30;;;19.50;99.90;;;;;;5151363;27;45444;-73
2022/08/24 06:10:52;;;;;;;13.85;2.50;;;19.60;99.90;;;;;;5166730;27;48365;-72
2022/08/24 06:13:18;;;;;;;14.15;2.67;;;19.70;99.90;;;;;;5165691;27;45391;-72
2022/08/24 06:15:45;;;;;;;7.20;2.72;;;19.80;99.60;;;;;;5146573;27;45402;-73
2022/08/24 06:18:13;;;;;;;9.32;3.20;;;20.00;99.00;;;;;;5145234;27;45382;-73
2022/08/24 06:20:42;;;;;;;6.55;2.63;;;20.10;98.60;;;;;;5146513;27;46431;-73
2022/08/24 06:23:09;;;;;;;8.57;2.60;;;20.20;98.10;;;;;;5146144;27;45424;-73
2022/08/24 06:28:23;;;;;;;7.75;2.80;;;20.30;97.40;;;;;;5147239;27;45553;-73
2022/08/24 06:30:50;;;;;;;8.45;2.78;;;20.50;97.00;;;;;;5147513;27;47836;-73
2022/08/24 06:33:18;;;;;;;7.50;3.08;;;20.70;96.30;;;;;;5131912;27;45377;-73
2022/08/24 06:35:46;;;;;;;7.88;2.63;;;20.80;96.00;;;;;;5135957;27;45429;-72
2022/08/24 06:38:13;;;;;;;5.43;2.75;;;20.80;95.10;;;;;;5133257;27;45399;-73
2022/08/24 06:40:40;;;;;;;7.32;2.92;;;20.90;95.30;;;;;;5131782;27;46631;-73
2022/08/24 06:43:07;;;;;;;7.30;3.08;;;20.90;95.60;;;;;;5136991;27;45441;-74
2022/08/24 06:45:34;;;;;;;5.47;2.70;;;21.00;94.80;;;;;;5135883;27;45415;-73
2022/08/24 06:48:00;;;;;;;9.15;3.10;;;21.00;94.50;;;;;;5147750;27;45403;-73
2022/08/24 06:50:28;;;;;;;8.98;3.10;;;21.10;94.50;;;;;;5132785;27;46553;-72
2022/08/24 06:52:55;;;;;;;8.57;2.78;;;21.30;94.10;;;;;;5158716;27;45246;-73
2022/08/24 06:55:22;;;;;;;10.82;3.10;;;21.20;93.60;;;;;;5158198;27;45369;-72
2022/08/24 06:57:49;;;;;;;10.30;3.58;;;21.30;93.50;;;;;;5166594;27;45442;-72
2022/08/24 07:00:17;;;;;;;5.53;2.95;;;21.40;92.90;;;;;;5144619;27;45449;-73
2022/08/24 07:02:44;;;;;;;12.30;3.33;;;21.40;93.10;;;;;;5138209;27;46104;-73
2022/08/24 07:05:11;;;;;;;6.97;3.40;;;21.40;92.80;;;;;;5138292;27;45363;-73
2022/08/24 07:07:39;;;;;;;10.23;3.50;;;21.50;91.70;;;;;;5134563;27;45455;-73
2022/08/24 07:10:08;;;;;;;5.40;2.90;;;21.60;91.50;;;;;;5135940;27;45606;-74
2022/08/24 07:12:35;;;;;;;7.13;3.30;;;21.70;91.60;;;;;;5124181;27;45724;-73
2022/08/24 07:15:02;;;;;;;8.32;2.97;;;21.80;90.80;;;;;;5125645;27;45472;-73
2022/08/24 07:17:29;;;;;;;6.57;2.65;;;21.80;90.20;;;;;;5125082;27;45629;-72
2022/08/24 07:19:56;;;;;;;6.93;2.63;;;22.00;87.60;;;;;;5132809;27;48015;-72
2022/08/24 07:22:22;;;;;;;4.88;2.60;;;22.10;85.10;;;;;;5132591;27;45332;-73
2022/08/24 07:24:51;;;;;;;5.50;2.63;;;22.20;83.80;;;;;;5133283;27;45307;-74
2022/08/24 07:27:17;;;;;;;9.07;2.72;;;22.30;82.20;;;;;;5152160;27;45498;-73
2022/08/24 07:29:44;;;;;;;7.00;2.70;;;22.30;81.00;;;;;;5136633;27;46988;-73
2022/08/24 07:32:11;;;;;;;10.90;2.88;;;22.40;80.30;;;;;;5135969;27;45259;-73
2022/08/24 07:34:38;;;;;;;8.45;2.55;;;22.50;80.40;;;;;;5140320;27;45354;-73
2022/08/24 07:37:06;;;;;;;5.18;2.83;;;22.50;80.40;;;;;;5147412;27;45923;-73
2022/08/24 07:39:33;;;;;;;5.68;2.80;;;22.50;80.70;;;;;;5138969;27;48527;-73
2022/08/24 07:42:01;;;;;;;7.57;2.67;;;22.60;80.60;;;;;;5147441;27;45368;-73
2022/08/24 07:44:29;;;;;;;7.50;2.67;;;22.70;80.20;;;;;;5138203;27;45434;-74
2022/08/24 07:46:56;;;;;;;28.27;4.35;;;22.80;79.40;;;;;;5138702;27;45448;-74
2022/08/24 07:49:23;;;;;;;8.30;2.72;;;23.00;82.80;;;;;;5145339;27;48079;-74
2022/08/24 07:51:52;;;;;;;5.10;2.55;;;23.10;79.10;;;;;;5140915;27;45527;-75
2022/08/24 07:54:19;;;;;;;7.70;2.50;;;23.00;79.30;;;;;;5150207;27;45411;-75
2022/08/24 07:56:46;;;;;;;7.72;2.90;;;23.10;81.40;;;;;;5157986;27;45454;-74
2022/08/24 07:59:14;;;;;;;20.90;2.80;;;23.20;78.90;;;;;;5158830;27;45482;-74
2022/08/24 08:01:41;;;;;;;12.77;2.80;;;23.20;80.50;;;;;;5159592;27;45267;-75
2022/08/24 08:04:09;;;;;;;11.07;2.58;;;23.20;80.20;;;;;;5151243;27;45351;-76
2022/08/24 08:06:36;;;;;;;18.80;3.00;;;23.20;78.40;;;;;;5148721;27;45133;-76
2022/08/24 08:09:04;;;;;;;6.80;2.67;;;23.20;78.50;;;;;;5148330;27;45244;-76
2022/08/24 08:11:31;;;;;;;12.02;2.92;;;23.30;78.80;;;;;;5148321;27;46626;-76
2022/08/24 08:13:58;;;;;;;8.02;2.85;;;23.30;79.10;;;;;;5148567;27;45214;-76
2022/08/24 08:16:26;;;;;;;5.60;2.40;;;23.30;78.40;;;;;;5148340;27;45547;-76
2022/08/24 08:25:13;;;;;;;11.40;2.60;;;23.40;78.30;;;;;;5151172;27;45371;-74
2022/08/24 08:27:39;;;;;;;7.90;2.53;;;23.50;78.30;;;;;;5152406;27;45279;-75
2022/08/24 08:30:08;;;;;;;12.30;2.58;;;23.50;78.70;;;;;;5151921;27;47602;-76
2022/08/24 08:32:36;;;;;;;5.10;2.10;;;23.50;80.70;;;;;;5151914;27;45351;-75
2022/08/24 08:35:04;;;;;;;6.38;2.20;;;23.40;80.50;;;;;;5151983;27;45112;-76
2022/08/24 08:37:31;;;;;;;5.78;2.20;;;23.60;81.40;;;;;;5152031;27;45696;-76
2022/08/24 08:39:58;;;;;;;3.20;2.00;;;23.60;79.60;;;;;;5151639;27;45840;-75
2022/08/24 08:42:47;;;;;;;4.20;1.75;;;23.70;80.70;;;;;;5151577;27;46003;-76
2022/08/24 08:45:27;;;;;;;5.80;2.35;;;23.80;79.30;;;;;;5151876;27;45210;-76
2022/08/24 08:48:38;;;;;;;5.35;1.73;;;23.90;79.50;;;;;;5151946;27;45596;-75
2022/08/24 08:51:41;;;;;;;6.47;1.70;;;23.80;79.50;;;;;;5151208;27;45323;-75
2022/08/24 08:54:19;;;;;;;4.40;1.60;;;23.80;80.40;;;;;;5151546;27;45251;-75
2022/08/24 08:57:08;;;;;;;3.45;1.77;;;23.80;81.40;;;;;;5151640;27;45305;-75
2022/08/24 08:59:51;;;;;;;2.78;1.50;;;23.80;80.50;;;;;;5151861;27;45456;-76
2022/08/24 09:02:38;;;;;;;5.95;2.08;;;23.80;80.10;;;;;;5151540;27;45226;-75
2022/08/24 09:05:37;;;;;;;6.28;1.83;;;23.80;76.30;;;;;;5151329;27;45419;-75
2022/08/24 09:08:13;;;;;;;4.43;1.77;;;24.00;78.40;;;;;;5151240;27;45194;-76
2022/08/24 09:10:57;;;;;;;2.85;1.60;;;23.90;79.70;;;;;;5151657;27;45230;-76
2022/08/24 09:13:38;;;;;;;4.13;1.50;;;23.90;80.20;;;;;;5151339;27;47617;-76
2022/08/24 09:16:20;;;;;;;4.20;1.65;;;23.90;80.40;;;;;;5151214;27;45291;-76
2022/08/24 09:18:59;;;;;;;5.03;1.88;;;23.90;80.50;;;;;;5149939;27;45194;-76
2022/08/24 09:21:49;;;;;;;5.05;1.80;;;23.90;80.50;;;;;;5151583;27;45134;-76
2022/08/24 09:24:30;;;;;;;3.42;1.90;;;23.80;80.70;;;;;;5151083;27;48408;-76
2022/08/24 09:27:10;;;;;;;3.17;1.60;;;23.90;80.70;;;;;;5150659;27;45187;-77
2022/08/24 09:29:52;;;;;;;4.47;1.52;;;23.90;80.70;;;;;;5151129;27;45223;-76
2022/08/24 09:32:35;;;;;;;8.43;3.35;;;23.90;80.70;;;;;;5151308;27;45136;-76
2022/08/24 09:35:08;;;;;;;7.28;2.10;;;24.10;73.80;;;;;;5150657;27;48761;-76
2022/08/24 09:37:53;;;;;;;4.75;2.10;;;24.20;76.30;;;;;;5150951;27;45383;-76
2022/08/24 09:40:44;;;;;;;3.80;2.20;;;24.00;78.80;;;;;;5151053;27;45195;-76
2022/08/24 09:43:43;;;;;;;2.92;1.85;;;23.90;80.10;;;;;;5150774;27;45136;-76
2022/08/24 09:46:32;;;;;;;4.70;2.28;;;23.80;82.30;;;;;;5150563;27;45506;-76
2022/08/24 09:49:26;;;;;;;5.00;2.25;;;23.70;87.10;;;;;;5150495;27;45138;-76
2022/08/24 09:52:30;;;;;;;4.72;2.17;;;23.70;82.60;;;;;;5151116;27;45279;-77
2022/08/24 09:55:30;;;;;;;4.10;2.15;;;23.70;83.10;;;;;;5151223;27;45126;-76
2022/08/24 09:58:11;;;;;;;4.80;2.60;;;23.70;82.40;;;;;;5140424;27;47482;-75
2022/08/24 10:00:44;;;;;;;6.28;2.38;;;23.70;84.10;;;;;;5150674;27;45204;-75
2022/08/24 10:03:34;;;;;;;4.60;2.30;;;23.70;83.20;;;;;;5150854;27;45281;-76
2022/08/24 10:06:14;;;;;;;6.15;2.40;;;23.70;84.10;;;;;;5147412;27;45113;-75
2022/08/24 10:08:55;;;;;;;3.38;1.90;;;23.70;83.10;;;;;;5150011;27;48897;-76
2022/08/24 10:11:27;;;;;;;2.80;1.65;;;23.80;82.00;;;;;;5152694;27;46365;-76
2022/08/24 10:14:02;;;;;;;2.40;1.67;;;23.80;81.60;;;;;;5151392;27;45135;-76
2022/08/24 10:16:40;;;;;;;4.78;2.03;;;23.80;83.70;;;;;;5150213;27;45571;-77
2022/08/24 10:19:28;;;;;;;6.40;2.20;;;23.80;77.10;;;;;;5150177;27;48316;-76
2022/08/24 10:22:03;;;;;;;4.07;1.92;;;23.80;81.50;;;;;;5150318;27;45469;-76
2022/08/24 10:24:45;;;;;;;3.78;1.80;;;23.80;81.60;;;;;;5150521;27;45205;-76
2022/08/24 10:27:41;;;;;;;4.28;2.38;;;23.90;81.70;;;;;;5149669;27;45570;-76
2022/08/24 10:30:33;;;;;;;5.07;2.20;;;23.80;84.30;;;;;;5150460;27;45701;-76
2022/08/24 10:33:11;;;;;;;3.95;2.00;;;23.70;81.40;;;;;;5149940;27;45268;-76
2022/08/24 10:35:47;;;;;;;3.50;1.70;;;23.80;84.50;;;;;;5150425;27;45245;-76
2022/08/24 10:42:02;;;;;;;3.08;1.52;;;23.80;81.60;;;;;;5147056;27;45746;-77
2022/08/24 10:44:44;;;;;;;2.45;1.30;;;23.90;81.10;;;;;;5148859;27;45138;-76
2022/08/24 10:47:21;;;;;;;5.45;1.55;;;23.90;81.20;;;;;;5149654;27;45302;-77
2022/08/24 10:50:16;;;;;;;3.55;1.50;;;23.90;81.60;;;;;;5149903;27;45394;-77
2022/08/24 10:53:19;;;;;;;3.42;1.50;;;23.90;81.60;;;;;;5142815;27;47139;-76
2022/08/24 10:55:52;;;;;;;2.25;1.40;;;23.90;81.40;;;;;;5149698;27;45337;-77
2022/08/24 10:58:45;;;;;;;2.40;1.42;;;23.90;81.10;;;;;;5149507;27;45215;-76
2022/08/24 11:01:19;;;;;;;5.18;1.90;;;23.90;80.80;;;;;;5149738;27;45069;-76
2022/08/24 11:03:52;;;;;;;1.90;1.60;;;23.90;81.50;;;;;;5149433;27;45911;-76
2022/08/24 11:06:21;;;;;;;1.85;1.23;;;23.80;83.10;;;;;;5151243;27;45180;-76
2022/08/24 11:08:55;;;;;;;3.13;1.40;;;23.80;81.60;;;;;;5149207;27;45302;-77
2022/08/24 11:11:29;;;;;;;4.38;1.98;;;23.80;79.60;;;;;;5149892;27;45398;-76
2022/08/24 11:13:59;;;;;;;3.63;1.85;;;23.90;73.70;;;;;;5148607;27;45774;-76
2022/08/24 11:16:31;;;;;;;6.75;2.50;;;23.80;80.40;;;;;;5149234;27;45218;-76
2022/08/24 11:19:01;;;;;;;4.68;2.03;;;23.80;81.90;;;;;;5149352;27;45338;-77
2022/08/24 11:21:41;;;;;;;2.17;1.40;;;23.70;81.50;;;;;;5149064;27;45135;-76
2022/08/24 11:24:13;;;;;;;2.28;1.65;;;23.80;84.00;;;;;;5149304;27;46613;-77
2022/08/24 11:26:52;;;;;;;4.18;2.35;;;23.80;81.50;;;;;;5148160;27;45337;-76
2022/08/24 11:29:20;;;;;;;2.55;1.60;;;23.80;82.90;;;;;;5148995;27;45397;-77
2022/08/24 11:31:51;;;;;;;2.03;1.60;;;23.70;81.40;;;;;;5149468;27;45222;-76
2022/08/24 11:34:35;;;;;;;2.67;1.65;;;23.80;81.50;;;;;;5149334;27;45244;-77
2022/08/24 11:37:05;;;;;;;2.05;1.55;;;23.80;81.60;;;;;;5149037;27;45975;-77
2022/08/24 11:39:35;;;;;;;1.67;1.33;;;23.80;81.20;;;;;;5149065;27;45215;-77
2022/08/24 11:42:12;;;;;;;1.35;1.20;;;23.80;81.50;;;;;;5148787;27;45455;-76
2022/08/24 11:44:45;;;;;;;2.65;1.40;;;23.80;81.50;;;;;;5148580;27;47720;-76
2022/08/24 11:47:38;;;;;;;3.00;1.58;;;23.80;82.30;;;;;;5148803;27;45254;-76
2022/08/24 11:50:27;;;;;;;1.27;1.17;;;23.90;80.60;;;;;;5148594;27;45161;-74
2022/08/24 11:53:10;;;;;;;5.40;1.13;;;23.90;80.50;;;;;;5148823;27;45190;-75
2022/08/24 11:55:43;;;;;;;2.10;1.38;;;23.90;82.40;;;;;;5147954;27;48707;-76
2022/08/24 11:58:16;;;;;;;2.33;1.45;;;23.90;83.40;;;;;;5159788;27;45099;-74
2022/08/24 12:00:47;;;;;;;2.03;1.30;;;24.00;83.10;;;;;;5169011;27;45539;-75
2022/08/24 12:03:30;;;;;;;4.10;1.52;;;24.10;81.00;;;;;;5147921;27;45576;-75
2022/08/24 12:06:07;;;;;;;2.40;1.25;;;24.30;79.90;;;;;;5147665;27;45509;-75
2022/08/24 12:08:40;;;;;;;3.15;1.30;;;24.40;79.00;;;;;;5147964;27;46284;-75
2022/08/24 12:11:17;;;;;;;2.15;1.50;;;24.50;80.10;;;;;;5148207;27;45192;-75
2022/08/24 12:13:52;;;;;;;2.20;1.30;;;24.70;82.30;;;;;;5148295;27;45515;-75
2022/08/24 12:16:28;;;;;;;2.00;1.25;;;24.70;82.30;;;;;;5147999;27;46577;-75
2022/08/24 12:19:01;;;;;;;2.28;1.38;;;24.90;76.70;;;;;;5148023;27;46031;-75
2022/08/24 12:21:32;;;;;;;3.08;1.35;;;25.00;80.70;;;;;;5160677;27;45118;-75
2022/08/24 12:24:02;;;;;;;3.67;1.23;;;25.00;71.40;;;;;;5169157;27;45285;-75
2022/08/24 12:26:36;;;;;;;5.18;1.90;;;25.10;80.70;;;;;;5155763;27;47401;-75
2022/08/24 12:29:09;;;;;;;1.55;1.08;;;25.00;82.60;;;;;;5148052;27;45234;-75
2022/08/24 12:31:43;;;;;;;1.80;1.30;;;25.00;82.60;;;;;;5148261;27;45202;-75
2022/08/24 12:34:16;;;;;;;1.92;1.10;;;25.00;82.60;;;;;;5147979;27;45303;-75
2022/08/24 12:36:57;;;;;;;2.20;1.05;;;25.00;82.90;;;;;;5147789;27;48734;-75
2022/08/24 12:39:29;;;;;;;1.80;1.48;;;25.10;82.60;;;;;;5148019;27;45401;-75
2022/08/24 12:42:05;;;;;;;6.88;1.60;;;25.10;84.20;;;;;;5147992;27;45137;-75
2022/08/24 12:44:40;;;;;;;2.70;1.20;;;25.10;83.70;;;;;;5148043;27;45540;-75
2022/08/24 12:47:08;;;;;;;3.35;1.50;;;25.20;82.70;;;;;;5147427;27;48165;-75
2022/08/24 12:49:49;;;;;;;2.25;1.40;;;25.20;84.10;;;;;;5147694;27;45204;-76
2022/08/24 12:52:51;;;;;;;4.90;2.03;;;25.20;83.20;;;;;;5149251;27;45101;-75
2022/08/24 12:55:50;;;;;;;2.78;1.60;;;25.20;82.70;;;;;;5119079;27;45536;-75
2022/08/24 12:58:48;;;;;;;4.75;1.75;;;25.10;82.60;;;;;;5147448;27;48009;-75
2022/08/24 13:01:16;;;;;;;3.42;1.70;;;25.00;83.40;;;;;;5147651;27;45348;-75
2022/08/24 13:03:46;;;;;;;2.83;1.90;;;24.90;83.10;;;;;;5147815;27;45362;-75
2022/08/24 13:06:20;;;;;;;2.58;1.73;;;25.00;75.10;;;;;;5147572;27;45272;-75
2022/08/24 13:08:50;;;;;;;2.80;1.48;;;25.10;81.90;;;;;;5149946;27;48248;-75
2022/08/24 13:11:31;;;;;;;3.08;1.67;;;25.20;81.40;;;;;;5151327;27;45368;-75
2022/08/24 13:14:19;;;;;;;4.03;1.48;;;25.20;80.90;;;;;;5151274;27;45126;-75
2022/08/24 13:16:50;;;;;;;4.80;1.80;;;25.10;81.20;;;;;;5151044;27;45418;-75
2022/08/24 13:19:32;;;;;;;1.95;1.40;;;25.10;80.60;;;;;;5150988;27;47432;-75
2022/08/24 13:22:20;;;;;;;2.70;1.50;;;24.90;81.00;;;;;;5150913;27;45458;-75
2022/08/24 13:24:53;;;;;;;2.88;1.30;;;24.70;81.50;;;;;;5157472;27;45173;-75